Havana, North Dakota
Current Conditions -  °F | °C
As of 12:35 PM on Saturday 25 Oct 2014 (Local Time) from KGWR Reporting Station
Clear Clear  
Wind Chill: 61°   Ceiling: Unl
Heat Index: 61°   Visibility: 10mi
Dew Point: 32°   Wind: 17mph
Humidity: 34%   Direction: 320°NW
Pressure: 30.14"   Gusts: 22mph
Location:  45.95°N, 97.62°W
Report Text: KGWR 251735Z AUTO 32015G19KT 10SM CLR 16/00 A3014 RMK A01 P000
Loading
Personal Weather Stations






























Interactive Weather Map
Tropical Storm Tracking
New forecast layout! Learn more

10-Day Weather Forecast

Advertisements
Track Severe Weather on mobile